Gray, Maine
Current Conditions -  °F | °C
As of 12:15 PM on Saturday 25 Oct 2014 (Local Time) from KLEW Reporting Station
Clear Clear  
Wind Chill: 61°   Ceiling: Unl
Heat Index: 61°   Visibility: 10mi
Dew Point: 39°   Wind: 3mph
Humidity: 45%   Direction: 260°W
Pressure: 29.63"   Gusts: NA
Location:  43.89°N, 70.33°W
Report Text: KLEW 251615Z AUTO 26003KT 10SM CLR 16/04 A2963 RMK AO1
Loading
Personal Weather Stations






























Interactive Weather Map
Tropical Storm Tracking
New forecast layout! Learn more

10-Day Weather Forecast

Advertisements
Track Severe Weather on mobile